sim
Sign-in with your pilot id or email,
or register
Callsign
Passwort

Schedule Details

Flight Number: EWG2682 (1)
Departure: Stuttgart Airport (EDDS) at 15:00
Arrival: Thessaloniki International Airport (LGTS) at 17:25
Route: Eurowings Passenger Schedule. Enter filed route here before submitting Pirep.

Weather Information
Getting current METAR information for EDDS 252150Z 31010KT CAVOK 10/05 Q1011
Getting current METAR information for LGTS 252150Z 00000KT CAVOK 15/12 Q1020 NOSIG

Schedule Frequency

Route Map